createdAt,value
2018-03-01T00:00:19.252Z,48.80
2018-03-01T00:02:21.144Z,49.00
2018-03-01T00:04:22.249Z,49.00
2018-03-01T00:06:23.369Z,49.20
2018-03-01T00:08:47.998Z,48.50
2018-03-01T00:10:49.112Z,49.20
2018-03-01T00:12:50.857Z,49.50
2018-03-01T00:14:52.435Z,49.10
2018-03-01T00:16:53.600Z,49.30
2018-03-01T00:18:54.724Z,49.10
2018-03-01T00:20:55.877Z,49.10
2018-03-01T00:22:57.014Z,49.50
2018-03-01T00:24:58.093Z,49.40
2018-03-01T00:26:59.233Z,49.10
2018-03-01T00:29:00.298Z,49.50
2018-03-01T00:31:01.412Z,49.40
2018-03-01T00:33:02.739Z,49.80
2018-03-01T00:35:04.992Z,49.60
2018-03-01T00:37:06.305Z,50.00
2018-03-01T00:39:09.824Z,50.20
2018-03-01T00:41:11.071Z,50.20
2018-03-01T00:43:12.161Z,49.60
2018-03-01T01:24:10.207Z,49.80
2018-03-01T01:26:14.644Z,49.90
2018-03-01T01:28:15.738Z,49.90
2018-03-01T01:30:16.857Z,49.90
2018-03-01T01:32:17.962Z,50.90
2018-03-01T01:34:19.925Z,49.70
2018-03-01T01:36:20.998Z,49.70
2018-03-01T01:38:22.919Z,49.70
2018-03-01T01:40:24.039Z,49.70
2018-03-01T01:42:25.200Z,50.20
2018-03-01T01:44:26.368Z,49.60
2018-03-01T01:46:27.492Z,49.70
2018-03-01T01:48:28.606Z,50.00
2018-03-01T01:50:42.802Z,49.60
2018-03-01T01:52:43.943Z,49.60
2018-03-01T01:54:45.158Z,49.80
2018-03-01T01:56:46.311Z,50.30
2018-03-01T01:58:48.163Z,50.40
2018-03-01T02:00:49.302Z,50.40
2018-03-01T02:02:50.385Z,49.30
2018-03-01T02:04:52.294Z,49.90
2018-03-01T02:06:53.409Z,49.80
2018-03-01T02:08:54.573Z,49.90
2018-03-01T02:10:56.192Z,50.10
2018-03-01T02:12:58.047Z,49.90
2018-03-01T02:14:59.224Z,49.90
2018-03-01T02:17:00.432Z,50.80
2018-03-01T02:19:01.544Z,50.10
2018-03-01T02:21:02.701Z,50.50
2018-03-01T02:23:03.794Z,50.30
2018-03-01T02:25:04.923Z,49.30
2018-03-01T02:27:06.140Z,49.00
2018-03-01T02:29:07.688Z,49.70
2018-03-01T02:31:11.384Z,50.70
2018-03-01T02:33:12.590Z,50.90
2018-03-01T02:35:13.771Z,50.70
2018-03-01T02:37:14.915Z,50.40
2018-03-01T02:39:16.061Z,50.30
2018-03-01T02:41:17.174Z,51.00
2018-03-01T02:43:18.335Z,50.40
2018-03-01T02:45:19.463Z,51.30
2018-03-01T02:47:20.621Z,51.20
2018-03-01T02:49:21.738Z,51.00
2018-03-01T02:51:22.896Z,50.70
2018-03-01T02:53:24.006Z,51.10
2018-03-01T02:55:25.128Z,51.30
2018-03-01T02:57:26.326Z,50.70
2018-03-01T02:59:27.518Z,50.80
2018-03-01T03:01:28.697Z,51.50
2018-03-01T03:03:30.320Z,51.20
2018-03-01T03:05:31.379Z,51.90
2018-03-01T03:07:33.021Z,51.50
2018-03-01T03:09:34.147Z,52.00
2018-03-01T03:11:35.295Z,51.80
2018-03-01T03:13:36.600Z,51.50
2018-03-01T03:15:37.707Z,51.40
2018-03-01T03:17:39.691Z,51.90
2018-03-01T03:19:41.852Z,51.80
2018-03-01T03:21:43.841Z,52.20
2018-03-01T03:23:44.996Z,52.10
2018-03-01T03:25:47.448Z,52.70
2018-03-01T03:27:49.068Z,52.70
2018-03-01T03:29:50.629Z,52.20
2018-03-01T03:31:51.729Z,52.30
2018-03-01T03:33:52.835Z,52.70
2018-03-01T03:35:53.961Z,52.70
2018-03-01T03:37:55.407Z,52.70
2018-03-01T03:39:56.540Z,52.90
2018-03-01T03:41:57.611Z,52.50
2018-03-01T03:43:58.800Z,52.90
2018-03-01T03:45:59.937Z,53.20
2018-03-01T03:48:01.101Z,52.90
2018-03-01T03:50:02.411Z,52.70
2018-03-01T03:52:04.181Z,53.20
2018-03-01T03:54:05.347Z,53.10
2018-03-01T03:56:06.508Z,53.10
2018-03-01T03:58:08.318Z,53.20
2018-03-01T04:00:09.524Z,53.90
2018-03-01T04:02:10.909Z,54.20
2018-03-01T04:04:12.184Z,54.10
2018-03-01T04:06:13.407Z,54.10
2018-03-01T04:08:14.574Z,53.50
2018-03-01T04:10:16.015Z,54.00
2018-03-01T04:12:17.735Z,53.60
2018-03-01T04:14:18.955Z,54.40
2018-03-01T04:16:20.458Z,53.70
2018-03-01T04:18:28.433Z,54.10
2018-03-01T04:20:30.206Z,54.20
2018-03-01T04:22:31.348Z,54.60
2018-03-01T04:24:32.430Z,54.80
2018-03-01T04:26:34.519Z,55.00
2018-03-01T04:28:35.688Z,54.70
2018-03-01T04:30:36.894Z,54.80
2018-03-01T04:32:38.034Z,55.20
2018-03-01T04:34:39.208Z,55.20
2018-03-01T04:36:40.466Z,55.00
2018-03-01T04:38:41.636Z,55.40
2018-03-01T04:40:42.751Z,55.50
2018-03-01T04:42:44.156Z,55.60
2018-03-01T04:44:47.279Z,55.70
2018-03-01T04:46:48.398Z,55.10
2018-03-01T04:48:49.538Z,55.10
2018-03-01T04:50:50.660Z,55.20
2018-03-01T04:52:51.794Z,55.90
2018-03-01T04:54:52.901Z,55.90
2018-03-01T04:56:55.011Z,55.80
2018-03-01T04:58:56.243Z,55.90
2018-03-01T05:00:58.250Z,56.00
2018-03-01T05:02:59.264Z,56.00
2018-03-01T05:05:00.264Z,56.20
2018-03-01T05:07:01.564Z,56.80
2018-03-01T05:09:02.540Z,56.40
2018-03-01T05:11:04.422Z,56.10
2018-03-01T05:13:05.457Z,57.00
2018-03-01T05:15:06.411Z,57.30
2018-03-01T05:17:07.791Z,57.40
2018-03-01T05:19:08.794Z,57.10
2018-03-01T05:21:09.781Z,57.40
2018-03-01T05:23:10.765Z,57.40
2018-03-01T05:25:12.888Z,57.40
2018-03-01T05:27:13.864Z,57.30
2018-03-01T05:29:14.895Z,56.40
2018-03-01T05:31:15.916Z,56.80
2018-03-01T05:33:16.913Z,56.60
2018-03-01T05:35:17.879Z,56.90
2018-03-01T05:37:18.899Z,57.40
2018-03-01T05:39:20.015Z,57.30
2018-03-01T05:41:21.040Z,57.30
2018-03-01T05:43:22.828Z,57.30
2018-03-01T05:45:23.847Z,57.30
2018-03-01T05:47:24.839Z,57.30
2018-03-01T05:49:25.823Z,57.90
2018-03-01T05:51:26.790Z,57.40
2018-03-01T05:53:28.545Z,57.50
2018-03-01T05:55:29.568Z,57.40
2018-03-01T05:57:30.688Z,57.30
2018-03-01T05:59:31.705Z,57.30
2018-03-01T06:01:32.654Z,57.30
2018-03-01T06:03:34.489Z,57.80
2018-03-01T06:05:36.651Z,57.80
2018-03-01T06:07:38.390Z,57.60
2018-03-01T06:09:39.351Z,57.60
2018-03-01T06:11:40.324Z,57.40
2018-03-01T06:13:41.431Z,57.30
2018-03-01T06:15:42.384Z,57.30
2018-03-01T06:17:43.923Z,57.40
2018-03-01T06:19:44.975Z,57.40
2018-03-01T06:21:45.987Z,57.20
2018-03-01T06:23:47.703Z,57.50
2018-03-01T06:25:48.914Z,57.50
2018-03-01T06:27:49.920Z,57.50
2018-03-01T06:29:50.880Z,57.00
2018-03-01T06:31:52.583Z,56.00
2018-03-01T06:33:53.587Z,56.50
2018-03-01T06:35:54.562Z,56.70
2018-03-01T06:37:55.556Z,57.00
2018-03-01T06:39:56.568Z,56.80
2018-03-01T06:41:57.744Z,56.20
2018-03-01T06:43:58.867Z,54.90
2018-03-01T06:45:59.769Z,53.90
2018-03-01T06:48:00.770Z,53.70
2018-03-01T06:50:01.794Z,53.40
2018-03-01T06:52:02.843Z,52.70
2018-03-01T06:54:04.547Z,51.40
2018-03-01T06:56:05.576Z,51.80
2018-03-01T06:58:06.811Z,51.10
2018-03-01T07:00:07.939Z,51.50
2018-03-01T07:02:08.992Z,51.20
2018-03-01T07:04:11.833Z,49.60
2018-03-01T07:06:12.801Z,49.60
2018-03-01T07:08:13.998Z,48.80
2018-03-01T07:10:15.080Z,48.40
2018-03-01T07:12:16.085Z,47.30
2018-03-01T07:14:17.044Z,47.20
2018-03-01T07:16:18.092Z,47.30
2018-03-01T07:18:19.657Z,46.70
2018-03-01T07:20:20.807Z,45.70
2018-03-01T07:22:21.793Z,45.90
2018-03-01T07:24:24.228Z,44.20
2018-03-01T07:26:25.394Z,43.80
2018-03-01T07:28:26.363Z,43.00
2018-03-01T07:30:27.507Z,42.30
2018-03-01T07:32:28.612Z,41.90
2018-03-01T07:34:29.582Z,41.10
2018-03-01T07:36:30.524Z,42.20
2018-03-01T07:38:31.488Z,41.40
2018-03-01T07:40:32.472Z,40.10
2018-03-01T07:42:33.431Z,40.10
2018-03-01T07:44:35.195Z,39.70
2018-03-01T07:46:36.253Z,39.60
2018-03-01T07:48:38.272Z,38.90
2018-03-01T07:50:39.250Z,39.00
2018-03-01T07:52:41.083Z,38.80
2018-03-01T07:54:42.167Z,38.80
2018-03-01T07:56:44.144Z,38.80
2018-03-01T07:58:45.207Z,38.80
2018-03-01T08:00:46.319Z,38.00
2018-03-01T08:02:47.296Z,37.40
2018-03-01T08:04:48.559Z,36.90
2018-03-01T08:06:49.507Z,36.40
2018-03-01T08:08:50.608Z,36.00
2018-03-01T08:10:51.622Z,35.80
2018-03-01T08:12:52.613Z,36.00
2018-03-01T08:14:53.576Z,36.20
2018-03-01T08:16:55.297Z,34.60
2018-03-01T08:18:56.276Z,34.60
2018-03-01T08:20:57.979Z,34.50
2018-03-01T08:22:58.947Z,34.50
2018-03-01T08:24:59.911Z,35.10
2018-03-01T08:27:01.005Z,35.30
2018-03-01T08:29:01.935Z,34.40
2018-03-01T08:31:03.836Z,34.70
2018-03-01T08:33:04.803Z,34.70
2018-03-01T08:35:05.767Z,34.20
2018-03-01T08:37:06.871Z,33.20
2018-03-01T08:39:07.859Z,34.40
2018-03-01T08:41:08.844Z,33.10
2018-03-01T08:43:09.831Z,33.00
2018-03-01T08:45:10.789Z,32.50
2018-03-01T08:47:11.836Z,32.60
2018-03-01T08:49:12.972Z,32.00
2018-03-01T08:51:13.952Z,32.70
2018-03-01T08:53:15.083Z,33.30
2018-03-01T08:55:16.047Z,32.80
2018-03-01T08:57:16.995Z,32.30
2018-03-01T08:59:17.972Z,34.70
2018-03-01T09:01:19.024Z,35.00
2018-03-01T09:03:19.919Z,34.90
2018-03-01T09:05:20.892Z,35.70
2018-03-01T09:07:22.584Z,36.10
2018-03-01T09:09:23.548Z,35.90
2018-03-01T09:11:24.551Z,36.80
2018-03-01T09:13:25.531Z,36.90
2018-03-01T09:15:26.493Z,38.10
2018-03-01T09:17:27.464Z,36.40
2018-03-01T09:19:28.516Z,36.80
2018-03-01T09:21:29.440Z,36.00
2018-03-01T09:23:30.384Z,35.90
2018-03-01T09:25:31.411Z,34.80
2018-03-01T09:27:32.365Z,34.50
2018-03-01T09:29:33.427Z,33.50
2018-03-01T09:31:34.474Z,32.50
2018-03-01T09:33:35.448Z,30.90
2018-03-01T09:35:37.134Z,29.20
2018-03-01T09:37:38.110Z,29.10
2018-03-01T09:39:39.092Z,30.70
2018-03-01T09:41:40.059Z,28.60
2018-03-01T09:43:41.753Z,28.60
2018-03-01T09:45:43.036Z,28.50
2018-03-01T09:47:44.014Z,28.90
2018-03-01T09:49:45.724Z,30.00
2018-03-01T09:51:46.698Z,29.30
2018-03-01T09:53:47.715Z,28.30
2018-03-01T09:55:48.688Z,28.70
2018-03-01T09:57:49.651Z,28.60
2018-03-01T09:59:50.623Z,28.60
2018-03-01T10:01:52.430Z,27.70
2018-03-01T10:03:53.496Z,28.30
2018-03-01T10:05:54.410Z,27.90
2018-03-01T10:07:55.391Z,27.30
2018-03-01T10:09:56.363Z,26.90
2018-03-01T10:11:58.115Z,27.90
2018-03-01T10:13:59.169Z,27.80
2018-03-01T10:16:00.872Z,27.80
2018-03-01T10:18:01.856Z,27.70
2018-03-01T10:20:02.824Z,27.30
2018-03-01T10:22:03.776Z,26.40
2018-03-01T10:24:05.476Z,26.50
2018-03-01T10:26:06.436Z,26.60
2018-03-01T10:28:07.408Z,25.80
2018-03-01T10:30:08.407Z,25.00
2018-03-01T10:32:09.363Z,24.90
2018-03-01T10:34:10.332Z,25.60
2018-03-01T10:36:12.237Z,24.80
2018-03-01T10:38:13.967Z,25.20
2018-03-01T10:40:14.959Z,25.20
2018-03-01T10:42:16.715Z,25.30
2018-03-01T10:44:18.474Z,24.00
2018-03-01T10:46:19.480Z,24.10
2018-03-01T10:48:20.540Z,24.90
2018-03-01T10:50:21.492Z,23.70
2018-03-01T10:52:23.476Z,25.50
2018-03-01T10:54:24.616Z,24.40
2018-03-01T10:56:26.365Z,26.20
2018-03-01T10:58:27.656Z,24.50
2018-03-01T11:00:34.675Z,24.90
2018-03-01T11:02:35.659Z,24.90
2018-03-01T11:04:36.627Z,23.90
2018-03-01T11:06:38.331Z,24.10
2018-03-01T11:08:40.124Z,23.50
2018-03-01T11:10:41.182Z,23.20
2018-03-01T11:12:42.123Z,25.10
2018-03-01T11:14:43.089Z,23.80
2018-03-01T11:16:44.176Z,24.50
2018-03-01T11:18:45.176Z,25.20
2018-03-01T11:20:46.164Z,24.00
2018-03-01T11:22:47.183Z,25.80
2018-03-01T11:24:48.951Z,25.40
2018-03-01T11:26:49.949Z,24.90
2018-03-01T11:28:50.926Z,24.20
2018-03-01T11:30:51.891Z,23.40
2018-03-01T11:32:52.896Z,24.60
2018-03-01T11:34:53.910Z,24.20
2018-03-01T11:36:54.963Z,24.80
2018-03-01T11:38:55.956Z,23.50
2018-03-01T11:40:56.990Z,23.50
2018-03-01T11:42:57.968Z,23.30
2018-03-01T11:44:58.945Z,22.30
2018-03-01T11:46:59.932Z,22.90
2018-03-01T11:49:00.969Z,22.30
2018-03-01T11:51:01.990Z,23.60
2018-03-01T11:53:03.218Z,24.50
2018-03-01T11:55:04.229Z,24.20
2018-03-01T11:57:05.224Z,22.60
2018-03-01T11:59:06.213Z,22.90
2018-03-01T12:01:07.227Z,23.00
2018-03-01T12:03:08.194Z,23.10
2018-03-01T12:05:09.196Z,22.70
2018-03-01T12:07:10.184Z,22.90
2018-03-01T12:09:11.215Z,21.70
2018-03-01T12:11:12.246Z,23.00
2018-03-01T12:13:13.221Z,23.00
2018-03-01T12:15:14.301Z,23.60
2018-03-01T12:17:15.336Z,23.20
2018-03-01T12:19:16.402Z,22.80
2018-03-01T12:21:17.371Z,22.80
2018-03-01T12:23:19.099Z,24.20
2018-03-01T12:25:20.102Z,24.20
2018-03-01T12:27:21.055Z,22.60
2018-03-01T12:29:22.016Z,23.30
2018-03-01T12:31:23.003Z,22.00
2018-03-01T12:33:24.085Z,22.50
2018-03-01T12:35:25.048Z,21.80
2018-03-01T12:37:26.830Z,21.20
2018-03-01T12:39:27.791Z,21.30
2018-03-01T12:41:28.759Z,20.60
2018-03-01T12:43:29.709Z,22.60
2018-03-01T12:45:30.675Z,21.70
2018-03-01T12:47:32.400Z,21.80
2018-03-01T12:49:35.088Z,21.70
2018-03-01T12:51:36.087Z,22.20
2018-03-01T12:53:37.094Z,21.60
2018-03-01T12:55:38.827Z,22.20
2018-03-01T12:57:39.781Z,22.20
2018-03-01T12:59:40.761Z,21.50
2018-03-01T13:01:42.485Z,21.60
2018-03-01T13:03:43.453Z,21.60
2018-03-01T13:05:44.435Z,21.40
2018-03-01T13:07:45.522Z,21.10
2018-03-01T13:09:47.208Z,22.30
2018-03-01T13:11:48.210Z,22.50
2018-03-01T13:13:49.206Z,22.10
2018-03-01T13:15:50.204Z,23.90
2018-03-01T13:17:51.162Z,22.80
2018-03-01T13:19:52.134Z,21.10
2018-03-01T13:21:53.160Z,22.10
2018-03-01T13:23:54.135Z,22.00
2018-03-01T13:25:55.116Z,21.00
2018-03-01T13:27:56.085Z,21.90
2018-03-01T13:29:57.071Z,22.30
2018-03-01T13:34:45.323Z,21.30
2018-03-01T13:36:46.417Z,21.30
2018-03-01T13:38:48.161Z,22.00
2018-03-01T13:40:49.142Z,22.00
2018-03-01T13:42:51.345Z,21.80
2018-03-01T13:44:52.465Z,21.90
2018-03-01T13:47:03.463Z,22.10
2018-03-01T13:49:04.461Z,22.30
2018-03-01T13:51:05.456Z,22.80
2018-03-01T13:53:06.444Z,22.10
2018-03-01T13:55:07.546Z,22.50
2018-03-01T13:57:08.587Z,21.30
2018-03-01T13:59:09.565Z,22.80
2018-03-01T14:01:10.552Z,22.30
2018-03-01T14:03:11.524Z,22.60
2018-03-01T14:05:12.496Z,22.90
2018-03-01T14:07:14.376Z,21.80
2018-03-01T14:09:18.159Z,22.90
2018-03-01T14:11:19.172Z,22.80
2018-03-01T14:13:26.161Z,22.50
2018-03-01T14:15:27.198Z,22.00
2018-03-01T14:17:42.166Z,22.60
2018-03-01T14:20:02.135Z,22.20
2018-03-01T14:22:04.157Z,22.90
2018-03-01T14:24:06.654Z,22.60
2018-03-01T14:26:12.632Z,22.60
2018-03-01T14:28:19.600Z,22.70
2018-03-01T14:30:22.320Z,23.60
2018-03-01T14:32:23.334Z,23.60
2018-03-01T14:34:25.053Z,23.30
2018-03-01T14:36:26.118Z,23.30
2018-03-01T14:38:27.903Z,23.30
2018-03-01T14:40:29.676Z,24.70
2018-03-01T14:42:30.656Z,24.60
2018-03-01T14:44:31.798Z,24.10
2018-03-01T14:46:32.810Z,23.50
2018-03-01T14:48:33.771Z,24.00
2018-03-01T14:50:34.831Z,24.30
2018-03-01T14:52:36.012Z,23.90
2018-03-01T14:54:37.091Z,25.40
2018-03-01T14:56:38.081Z,23.90
2018-03-01T14:58:39.045Z,24.90
2018-03-01T15:00:40.078Z,24.30
2018-03-01T15:02:41.070Z,24.70
2018-03-01T15:04:42.060Z,25.20
2018-03-01T15:06:43.704Z,25.00
2018-03-01T15:08:45.695Z,25.80
2018-03-01T15:10:46.732Z,25.80
2018-03-01T15:12:48.543Z,26.20
2018-03-01T15:14:49.538Z,25.60
2018-03-01T15:16:50.559Z,26.00
2018-03-01T15:18:52.787Z,25.70
2018-03-01T15:20:53.838Z,25.40
2018-03-01T15:22:54.816Z,26.60
2018-03-01T15:24:55.816Z,26.70
2018-03-01T15:26:56.928Z,27.20
2018-03-01T15:28:58.734Z,26.50
2018-03-01T15:30:59.705Z,26.50
2018-03-01T15:33:00.708Z,26.80
2018-03-01T15:35:01.703Z,26.50
2018-03-01T15:37:02.808Z,27.00
2018-03-01T15:39:04.521Z,27.60
2018-03-01T15:41:05.548Z,27.50
2018-03-01T15:43:06.544Z,27.50
2018-03-01T15:45:07.507Z,27.50
2018-03-01T15:47:08.569Z,28.60
2018-03-01T15:49:09.531Z,28.00
2018-03-01T15:51:10.526Z,28.40
2018-03-01T15:53:11.556Z,28.90
2018-03-01T15:55:12.520Z,29.60
2018-03-01T15:57:13.973Z,30.30
2018-03-01T15:59:15.034Z,30.90
2018-03-01T16:01:16.027Z,30.00
2018-03-01T16:03:17.016Z,30.60
2018-03-01T16:05:18.082Z,31.80
2018-03-01T16:07:19.084Z,31.70
2018-03-01T16:09:20.078Z,31.50
2018-03-01T16:11:21.096Z,32.60
2018-03-01T16:13:22.120Z,32.00
2018-03-01T16:15:23.111Z,33.20
2018-03-01T16:17:25.447Z,32.30
2018-03-01T16:19:27.422Z,33.90
2018-03-01T16:21:28.461Z,33.70
2018-03-01T16:23:29.481Z,34.20
2018-03-01T16:25:30.445Z,34.90
2018-03-01T16:27:31.475Z,34.70
2018-03-01T16:29:32.487Z,35.60
2018-03-01T16:31:34.188Z,36.40
2018-03-01T16:33:35.160Z,36.40
2018-03-01T16:35:36.136Z,36.60
2018-03-01T16:37:37.208Z,36.60
2018-03-01T16:39:38.964Z,37.80
2018-03-01T16:41:40.254Z,37.70
2018-03-01T16:43:41.224Z,36.90
2018-03-01T16:45:43.237Z,38.20
2018-03-01T16:47:44.217Z,38.20
2018-03-01T16:49:45.389Z,38.70
2018-03-01T16:51:46.403Z,38.80
2018-03-01T16:53:47.387Z,38.70
2018-03-01T16:55:48.383Z,38.50
2018-03-01T16:57:49.388Z,38.90
2018-03-01T16:59:50.409Z,40.00
2018-03-01T17:01:51.399Z,39.40
2018-03-01T17:03:52.409Z,39.40
2018-03-01T17:05:53.561Z,40.10
2018-03-01T17:07:54.629Z,39.50
2018-03-01T17:09:55.595Z,40.60
2018-03-01T17:11:56.642Z,41.00
2018-03-01T17:13:57.728Z,40.00
2018-03-01T17:15:58.761Z,40.10
2018-03-01T17:17:59.720Z,41.00
2018-03-01T17:20:00.661Z,40.50
2018-03-01T17:22:01.666Z,40.30
2018-03-01T17:24:02.704Z,40.60
2018-03-01T17:26:03.790Z,40.50
2018-03-01T17:28:04.815Z,41.20
2018-03-01T17:30:05.820Z,40.70
2018-03-01T17:32:06.839Z,40.20
2018-03-01T17:34:07.894Z,40.80
2018-03-01T17:36:08.913Z,41.20
2018-03-01T17:38:10.690Z,41.70
2018-03-01T17:40:11.726Z,41.60
2018-03-01T17:42:12.803Z,40.90
2018-03-01T17:44:13.889Z,40.90
2018-03-01T17:46:20.287Z,41.50
2018-03-01T17:48:21.484Z,41.50
2018-03-01T17:50:27.637Z,42.00
2018-03-01T17:52:29.078Z,41.90
2018-03-01T17:54:30.202Z,41.10
2018-03-01T17:56:31.210Z,41.80
2018-03-01T17:58:32.248Z,42.20
2018-03-01T18:00:33.212Z,41.60
2018-03-01T18:02:34.219Z,42.30
2018-03-01T18:04:35.193Z,42.20
2018-03-01T18:06:36.176Z,42.20
2018-03-01T18:08:37.162Z,42.20
2018-03-01T18:10:38.888Z,42.20
2018-03-01T18:12:39.872Z,42.20
2018-03-01T18:14:40.957Z,42.20
2018-03-01T18:16:41.920Z,42.60
2018-03-01T18:18:42.892Z,43.20
2018-03-01T18:20:44.233Z,42.10
2018-03-01T18:22:45.387Z,42.20
2018-03-01T18:24:46.394Z,42.10
2018-03-01T18:26:52.126Z,42.90
2018-03-01T18:28:53.198Z,42.90
2018-03-01T18:33:04.788Z,42.50
2018-03-01T18:35:07.639Z,43.60
2018-03-01T18:37:08.739Z,43.50
2018-03-01T18:39:09.724Z,42.90
2018-03-01T18:41:10.744Z,42.10
2018-03-01T18:43:11.763Z,43.50
2018-03-01T18:45:12.760Z,42.90
2018-03-01T18:47:13.779Z,43.40
2018-03-01T18:49:14.760Z,43.90
2018-03-01T18:51:15.724Z,43.20
2018-03-01T18:53:16.685Z,42.50
2018-03-01T18:55:17.656Z,42.40
2018-03-01T18:57:18.651Z,43.60
2018-03-01T18:59:19.616Z,43.20
2018-03-01T19:01:20.694Z,43.20
2018-03-01T19:03:21.844Z,42.90
2018-03-01T19:05:22.859Z,43.10
2018-03-01T19:07:23.809Z,42.80
2018-03-01T19:09:25.240Z,41.80
2018-03-01T19:11:27.045Z,43.80
2018-03-01T19:13:28.084Z,43.10
2018-03-01T19:15:30.754Z,42.30
2018-03-01T19:17:31.793Z,42.30
2018-03-01T19:19:32.782Z,42.80
2018-03-01T19:21:33.962Z,43.20
2018-03-01T19:23:34.937Z,42.60
2018-03-01T19:25:35.943Z,43.10
2018-03-01T19:27:37.600Z,43.30
2018-03-01T19:29:38.583Z,42.80
2018-03-01T19:31:40.786Z,42.50
2018-03-01T19:33:55.274Z,42.50
2018-03-01T19:35:56.263Z,43.10
2018-03-01T19:38:00.457Z,43.10
2018-03-01T19:40:03.089Z,43.10
2018-03-01T19:42:10.766Z,43.70
2018-03-01T19:44:12.028Z,43.60
2018-03-01T19:46:13.209Z,43.20
2018-03-01T19:48:15.139Z,43.80
2018-03-01T19:50:16.261Z,43.80
2018-03-01T19:52:17.738Z,42.90
2018-03-01T19:54:18.816Z,43.10
2018-03-01T19:56:19.830Z,43.60
2018-03-01T19:58:20.804Z,43.20
2018-03-01T20:00:21.956Z,43.30
2018-03-01T20:02:23.073Z,43.30
2018-03-01T20:04:35.201Z,43.30
2018-03-01T20:06:36.514Z,43.30
2018-03-01T20:08:37.557Z,43.00
2018-03-01T20:10:38.620Z,43.70
2018-03-01T20:12:43.900Z,43.20
2018-03-01T20:15:01.003Z,43.30
2018-03-01T20:17:02.376Z,43.90
2018-03-01T20:19:03.632Z,43.60
2018-03-01T20:21:04.777Z,43.20
2018-03-01T20:23:05.863Z,43.70
2018-03-01T20:25:07.049Z,44.00
2018-03-01T20:27:12.426Z,42.90
2018-03-01T20:29:14.715Z,43.00
2018-03-01T20:31:17.392Z,43.00
2018-03-01T20:33:20.126Z,44.20
2018-03-01T20:35:22.034Z,43.60
2018-03-01T20:37:23.154Z,43.60
2018-03-01T20:39:25.596Z,43.70
2018-03-01T20:41:26.612Z,43.70
2018-03-01T20:43:27.599Z,42.80
2018-03-01T20:45:28.585Z,43.20
2018-03-01T20:47:29.552Z,44.00
2018-03-01T20:49:30.549Z,43.80
2018-03-01T20:51:33.670Z,44.50
2018-03-01T20:53:35.119Z,43.50
2018-03-01T20:55:36.144Z,44.00
2018-03-01T20:57:37.084Z,43.80
2018-03-01T20:59:38.103Z,43.10
2018-03-01T21:01:39.236Z,43.50
2018-03-01T21:03:40.321Z,44.20
2018-03-01T21:05:41.612Z,44.00
2018-03-01T21:07:42.614Z,43.20
2018-03-01T21:09:43.668Z,43.30
2018-03-01T21:11:44.706Z,44.10
2018-03-01T21:13:45.707Z,43.50
2018-03-01T21:15:47.376Z,44.30
2018-03-01T21:17:49.841Z,43.80
2018-03-01T21:19:51.607Z,43.50
2018-03-01T21:21:52.654Z,43.50
2018-03-01T21:23:56.797Z,43.60
2018-03-01T21:25:57.959Z,43.10
2018-03-01T21:27:59.109Z,43.60
2018-03-01T21:30:00.231Z,43.60
2018-03-01T21:32:01.539Z,43.60
2018-03-01T21:34:02.672Z,44.30
2018-03-01T21:36:09.433Z,44.80
2018-03-01T21:38:11.877Z,44.60
2018-03-01T21:40:15.741Z,44.40
2018-03-01T21:42:16.963Z,44.40
2018-03-01T21:44:19.944Z,44.90
2018-03-01T21:46:21.055Z,44.70
2018-03-01T21:48:23.227Z,44.30
2018-03-01T21:50:24.529Z,44.70
2018-03-01T21:52:25.721Z,45.40
2018-03-01T21:54:26.743Z,44.30
2018-03-01T21:56:28.502Z,44.70
2018-03-01T21:58:29.913Z,44.10
2018-03-01T22:00:31.105Z,44.70
2018-03-01T22:02:32.688Z,44.70
2018-03-01T22:04:34.476Z,44.60
2018-03-01T22:06:35.582Z,44.60
2018-03-01T22:10:42.981Z,44.30
2018-03-01T22:12:44.059Z,45.10
2018-03-01T22:14:45.054Z,44.70
2018-03-01T22:16:46.091Z,44.60
2018-03-01T22:18:47.131Z,44.50
2018-03-01T22:20:48.314Z,44.70
2018-03-01T22:22:49.497Z,45.30
2018-03-01T22:24:50.530Z,45.30
2018-03-01T22:26:51.543Z,45.30
2018-03-01T22:28:52.745Z,44.50
2018-03-01T22:30:53.980Z,45.20
2018-03-01T22:32:57.527Z,45.20
2018-03-01T22:34:59.521Z,45.10
2018-03-01T22:37:00.656Z,45.40
2018-03-01T22:39:01.913Z,45.20
2018-03-01T22:41:02.948Z,45.50
2018-03-01T22:43:04.854Z,45.90
2018-03-01T22:45:06.244Z,46.00
2018-03-01T22:47:24.456Z,46.20
2018-03-01T22:49:26.669Z,46.00
2018-03-01T22:51:27.713Z,45.60
2018-03-01T22:55:58.432Z,46.10
2018-03-01T22:57:59.542Z,45.70
2018-03-01T23:00:01.187Z,46.10
2018-03-01T23:02:02.279Z,45.90
2018-03-01T23:04:03.346Z,45.40
2018-03-01T23:06:04.748Z,45.50
2018-03-01T23:08:07.805Z,46.20
2018-03-01T23:10:09.386Z,45.70
2018-03-01T23:12:10.508Z,46.50
2018-03-01T23:14:11.633Z,46.30
2018-03-01T23:16:12.710Z,46.30
2018-03-01T23:18:13.807Z,46.00
2018-03-01T23:20:15.064Z,46.30
2018-03-01T23:22:16.152Z,45.80
2018-03-01T23:24:17.168Z,46.60
2018-03-01T23:26:18.860Z,46.00
2018-03-01T23:28:19.998Z,47.50
2018-03-01T23:30:24.531Z,46.90
2018-03-01T23:32:26.129Z,46.80
2018-03-01T23:34:27.103Z,47.60
2018-03-01T23:36:28.133Z,47.60
2018-03-01T23:38:29.179Z,46.90
2018-03-01T23:40:30.167Z,47.30
2018-03-01T23:42:31.207Z,46.60
2018-03-01T23:44:32.179Z,47.60
2018-03-01T23:46:33.154Z,47.80
2018-03-01T23:48:34.179Z,47.90
2018-03-01T23:50:35.196Z,47.90
2018-03-01T23:52:36.198Z,47.80
2018-03-01T23:54:37.161Z,47.60
2018-03-01T23:56:39.723Z,47.20
2018-03-01T23:58:40.798Z,48.10
